Time;durP1;ratioP1;P1;durP2;ratioP2;P2;SDS_P1;SDS_P2;PMS_P1;PMS_P2;Temp;Humidity;BMP_temperature;BMP_pressure;BME280_temperature;BME280_humidity;BME280_pressure;Samples;Min_cycle;Max_cycle;Signal;HPM_P1;HPM_P2
2023/04/13 00:00:26;;;;;;;6.03;2.58;;;;;;;9.36;97.35;100582.19;2531190;23;20158;-68
2023/04/13 00:01:26;;;;;;;5.50;2.40;;;;;;;9.21;97.46;100556.03;2531437;23;20178;-68
2023/04/13 00:02:27;;;;;;;4.43;1.80;;;;;;;9.05;97.54;100531.84;2532348;23;20626;-68
2023/04/13 00:03:32;;;;;;;3.87;2.23;;;;;;;9.30;97.38;100572.84;2532512;23;20161;-68
2023/04/13 00:04:32;;;;;;;4.07;1.98;;;;;;;9.39;97.39;100587.66;2532786;23;20156;-68
2023/04/13 00:05:33;;;;;;;4.97;2.50;;;;;;;8.53;97.16;100452.72;2532752;23;20156;-68
2023/04/13 00:06:37;;;;;;;11.67;2.30;;;;;;;9.38;97.27;100590.88;2532863;23;20485;-68
2023/04/13 00:07:38;;;;;;;20.15;4.10;;;;;;;9.37;97.48;100583.78;2532793;23;20202;-68
2023/04/13 00:08:41;;;;;;;23.35;4.18;;;;;;;9.34;98.15;100587.38;2532841;23;20175;-68
2023/04/13 00:09:44;;;;;;;16.45;3.88;;;;;;;9.32;97.92;100584.28;2532619;23;20192;-68
2023/04/13 00:10:44;;;;;;;10.82;3.58;;;;;;;9.28;98.13;100581.56;2531060;23;20159;-68
2023/04/13 00:11:45;;;;;;;5.53;2.60;;;;;;;9.22;98.77;100582.50;2532018;23;20209;-68
2023/04/13 00:12:47;;;;;;;5.25;2.90;;;;;;;8.32;98.63;100458.63;2532803;23;20626;-68
2023/04/13 00:13:47;;;;;;;4.85;2.20;;;;;;;9.23;99.22;100587.56;2532667;23;20559;-68
2023/04/13 00:14:49;;;;;;;6.03;2.53;;;;;;;9.26;99.71;100585.94;2532937;23;20155;-68
2023/04/13 00:15:50;;;;;;;3.22;2.05;;;;;;;9.03;100.00;100547.31;2532588;23;20233;-68
2023/04/13 00:16:50;;;;;;;4.27;2.47;;;;;;;9.18;100.00;100576.25;2532796;23;20158;-68
2023/04/13 00:17:52;;;;;;;4.93;2.63;;;;;;;9.20;99.86;100577.38;2532627;23;20325;-68
2023/04/13 00:18:53;;;;;;;3.45;2.13;;;;;;;9.17;98.99;100582.97;2532599;23;20161;-69
2023/04/13 00:19:56;;;;;;;5.97;2.77;;;;;;;9.06;98.94;100571.31;2532680;23;20183;-68
2023/04/13 00:20:58;;;;;;;9.30;2.50;;;;;;;8.87;97.74;100536.16;2531836;23;20151;-68
2023/04/13 00:21:59;;;;;;;3.85;1.88;;;;;;;9.16;97.25;100578.63;2531275;23;20163;-68
2023/04/13 00:23:00;;;;;;;5.13;2.47;;;;;;;9.15;98.24;100577.06;2532761;23;20160;-68
2023/04/13 00:24:00;;;;;;;7.57;2.40;;;;;;;8.79;97.29;100535.50;2519613;23;20182;-68
2023/04/13 00:25:00;;;;;;;4.90;2.00;;;;;;;9.09;96.24;100582.34;2519773;23;20247;-68
2023/04/13 00:26:01;;;;;;;4.37;2.00;;;;;;;9.11;95.99;100579.91;2519591;23;20159;-68
2023/04/13 00:27:03;;;;;;;4.93;2.00;;;;;;;9.13;95.52;100577.50;2519987;23;20155;-68
2023/04/13 00:28:05;;;;;;;3.53;1.98;;;;;;;8.54;95.67;100479.13;2532467;23;20551;-68
2023/04/13 00:29:06;;;;;;;4.68;2.10;;;;;;;9.15;95.81;100586.16;2532694;23;20638;-68
2023/04/13 00:30:08;;;;;;;4.00;1.90;;;;;;;9.01;96.24;100558.78;2532478;23;20150;-68
2023/04/13 00:31:09;;;;;;;2.58;1.70;;;;;;;9.18;95.94;100579.00;2532732;23;20184;-68
2023/04/13 00:32:09;;;;;;;6.20;2.30;;;;;;;9.19;96.37;100577.81;2530348;23;20151;-68
2023/04/13 00:33:10;;;;;;;3.67;1.90;;;;;;;9.17;96.30;100571.94;2532762;23;20155;-68
2023/04/13 00:34:10;;;;;;;5.27;2.13;;;;;;;8.23;97.28;100434.31;2532486;23;20502;-68
2023/04/13 00:35:17;;;;;;;3.80;1.90;;;;;;;8.27;97.91;100446.09;2532725;23;20156;-68
2023/04/13 00:36:18;;;;;;;3.97;1.95;;;;;;;9.13;97.19;100582.25;2532614;23;20201;-68
2023/04/13 00:37:19;;;;;;;5.83;2.20;;;;;;;9.07;96.54;100579.19;2532639;23;20155;-68
2023/04/13 00:38:19;;;;;;;3.33;1.90;;;;;;;9.01;96.32;100577.34;2532766;23;20155;-68
2023/04/13 00:39:22;;;;;;;4.23;1.70;;;;;;;9.10;97.07;100581.13;2532826;23;20646;-68
2023/04/13 00:40:23;;;;;;;4.90;1.92;;;;;;;9.11;96.69;100584.66;2532633;23;20152;-68
2023/04/13 00:41:25;;;;;;;4.53;1.85;;;;;;;8.17;95.42;100435.19;2532629;23;20289;-68
2023/04/13 00:42:26;;;;;;;6.10;2.00;;;;;;;8.95;96.62;100571.53;2530371;23;20155;-68
2023/04/13 00:43:26;;;;;;;4.47;2.07;;;;;;;9.10;94.95;100583.09;2531897;23;20230;-68
2023/04/13 00:44:27;;;;;;;4.20;2.07;;;;;;;8.41;95.38;100484.47;2532558;23;20156;-68
2023/04/13 00:45:28;;;;;;;3.20;2.23;;;;;;;9.04;95.29;100576.50;2532616;23;20420;-68
2023/04/13 00:46:30;;;;;;;4.50;2.00;;;;;;;8.43;95.12;100482.09;2532515;23;20601;-68
2023/04/13 00:47:35;;;;;;;7.15;2.30;;;;;;;9.11;95.16;100581.88;2532694;23;20154;-68
2023/04/13 00:48:35;;;;;;;7.10;2.00;;;;;;;9.14;96.06;100586.59;2532752;23;20150;-68
2023/04/13 00:49:36;;;;;;;5.37;2.30;;;;;;;9.15;95.10;100588.13;2532385;23;20209;-68
2023/04/13 00:50:38;;;;;;;5.37;2.10;;;;;;;9.06;95.90;100561.06;2532617;23;20205;-68
2023/04/13 00:51:39;;;;;;;3.38;1.70;;;;;;;9.15;96.19;100577.06;2532159;23;20511;-68
2023/04/13 00:52:41;;;;;;;3.80;1.97;;;;;;;9.17;96.37;100580.22;2530978;23;20187;-68
2023/04/13 00:53:43;;;;;;;4.68;2.47;;;;;;;9.17;94.86;100583.75;2532326;23;20618;-69
2023/04/13 00:54:43;;;;;;;4.35;2.40;;;;;;;8.40;94.09;100460.81;2532502;23;20516;-68
2023/04/13 00:55:44;;;;;;;4.30;1.87;;;;;;;9.20;94.09;100584.88;2532560;23;20175;-68
2023/04/13 00:56:44;;;;;;;4.13;2.17;;;;;;;9.10;93.54;100569.28;2532694;23;20162;-68
2023/04/13 00:57:48;;;;;;;4.60;2.30;;;;;;;9.21;94.79;100578.16;2532556;23;20147;-68
2023/04/13 00:58:49;;;;;;;3.05;2.05;;;;;;;9.22;94.72;100582.50;2519396;23;20290;-68
2023/04/13 00:59:51;;;;;;;4.10;1.90;;;;;;;8.64;93.96;100487.22;2519777;23;20152;-68
2023/04/13 01:00:52;;;;;;;5.47;2.53;;;;;;;9.19;94.66;100577.81;2532529;23;20159;-68
2023/04/13 01:01:56;;;;;;;5.73;2.10;;;;;;;9.20;95.23;100577.38;2518828;23;20160;-68
2023/04/13 01:03:00;;;;;;;8.80;2.75;;;;;;;9.15;97.75;100571.53;2519507;23;20231;-68
2023/04/13 01:04:00;;;;;;;8.57;2.63;;;;;;;8.78;97.67;100516.56;2531804;23;20259;-68
2023/04/13 01:05:02;;;;;;;7.73;2.50;;;;;;;8.29;98.99;100451.16;2532520;23;20155;-68
2023/04/13 01:06:06;;;;;;;5.00;2.33;;;;;;;9.11;98.93;100570.81;2532468;23;20176;-68
2023/04/13 01:07:22;;;;;;;5.38;2.88;;;;;;;9.08;98.85;100572.44;2532537;23;20232;-68
2023/04/13 01:08:38;;;;;;;6.45;2.33;;;;;;;9.07;99.50;100570.91;2532473;23;20524;-68
2023/04/13 01:10:04;;;;;;;3.92;2.00;;;;;;;9.01;99.26;100586.41;2532269;23;20171;-68
2023/04/13 01:11:14;;;;;;;4.88;2.42;;;;;;;9.00;98.94;100581.31;2532666;23;20139;-68
2023/04/13 01:12:24;;;;;;;5.65;2.30;;;;;;;8.94;98.48;100577.47;2531712;23;20142;-68
2023/04/13 01:13:48;;;;;;;8.45;2.40;;;;;;;8.91;99.46;100581.84;2532026;23;20210;-68
2023/04/13 01:15:07;;;;;;;4.57;2.10;;;;;;;8.81;99.15;100588.34;2504317;23;20217;-68
2023/04/13 01:16:17;;;;;;;5.07;2.20;;;;;;;8.67;98.81;100565.72;2523555;23;20142;-68
2023/04/13 01:17:24;;;;;;;7.50;2.80;;;;;;;8.68;99.90;100573.59;2532699;23;20194;-68
2023/04/13 01:18:26;;;;;;;5.85;2.20;;;;;;;8.71;100.00;100577.50;2532467;23;20162;-68
2023/04/13 01:19:55;;;;;;;7.05;2.20;;;;;;;8.70;100.00;100579.47;2532416;23;20163;-68
2023/04/13 01:20:57;;;;;;;4.40;2.00;;;;;;;8.40;100.00;100534.63;2532690;23;20481;-68
2023/04/13 01:21:58;;;;;;;4.28;2.13;;;;;;;8.61;100.00;100573.69;2518600;23;20242;-68
2023/04/13 01:23:02;;;;;;;4.70;2.33;;;;;;;8.23;100.00;100533.69;2519709;23;20783;-68
2023/04/13 01:24:46;;;;;;;4.82;2.50;;;;;;;8.61;100.00;100570.16;2531354;23;20592;-68
2023/04/13 01:25:53;;;;;;;4.40;2.60;;;;;;;8.54;100.00;100576.59;2532634;23;20163;-68
2023/04/13 01:27:11;;;;;;;8.57;2.40;;;;;;;8.46;100.00;100574.34;2532508;23;20149;-68
2023/04/13 01:28:14;;;;;;;4.57;2.53;;;;;;;8.14;100.00;100530.66;2532546;23;20363;-68
2023/04/13 01:29:16;;;;;;;5.77;2.90;;;;;;;8.28;100.00;100565.56;2532261;23;20949;-68
2023/04/13 01:30:26;;;;;;;5.40;2.53;;;;;;;8.36;100.00;100578.84;2532421;23;20391;-68
2023/04/13 01:31:27;;;;;;;5.90;2.10;;;;;;;8.34;100.00;100572.97;2532126;23;20420;-68
2023/04/13 01:32:27;;;;;;;7.03;2.80;;;;;;;8.28;100.00;100571.06;2531991;23;20805;-68
2023/04/13 01:33:29;;;;;;;7.13;2.40;;;;;;;8.28;100.00;100571.06;2519394;23;20407;-68
2023/04/13 01:34:30;;;;;;;7.37;2.67;;;;;;;8.30;100.00;100579.75;2518735;23;20148;-68
2023/04/13 01:35:31;;;;;;;8.43;2.80;;;;;;;8.26;100.00;100579.78;2532040;23;20476;-68
2023/04/13 01:36:32;;;;;;;6.57;2.60;;;;;;;8.26;100.00;100577.00;2532413;23;20399;-68
2023/04/13 01:37:33;;;;;;;9.53;2.80;;;;;;;8.23;100.00;100577.88;2532494;23;20407;-68
2023/04/13 01:38:34;;;;;;;7.10;2.70;;;;;;;8.20;100.00;100578.69;2532712;23;20384;-68
2023/04/13 01:39:38;;;;;;;6.70;2.40;;;;;;;8.05;100.00;100560.75;2532322;23;20459;-68
2023/04/13 01:40:43;;;;;;;11.32;2.72;;;;;;;8.11;100.00;100572.88;2532465;23;20369;-68
2023/04/13 01:41:44;;;;;;;7.27;2.83;;;;;;;8.16;100.00;100580.69;2531550;23;20248;-68
2023/04/13 01:42:45;;;;;;;5.00;2.50;;;;;;;8.15;100.00;100576.38;2532173;23;20392;-68
2023/04/13 01:43:45;;;;;;;9.47;2.87;;;;;;;8.14;100.00;100574.81;2532261;23;20599;-68
2023/04/13 01:44:46;;;;;;;8.10;3.13;;;;;;;8.17;100.00;100581.47;2532236;23;20712;-68
2023/04/13 01:46:03;;;;;;;6.10;2.83;;;;;;;7.83;100.00;100533.88;2518309;23;20539;-68
2023/04/13 01:47:15;;;;;;;8.20;3.08;;;;;;;8.13;100.00;100576.00;2523440;23;20169;-68
2023/04/13 01:48:28;;;;;;;5.28;2.65;;;;;;;8.08;100.00;100572.94;2532529;23;20206;-68
2023/04/13 01:49:29;;;;;;;6.65;2.55;;;;;;;7.71;100.00;100517.88;2532339;23;20256;-68
2023/04/13 01:50:37;;;;;;;5.10;2.63;;;;;;;8.14;100.00;100580.31;2532272;23;20152;-68
2023/04/13 01:51:41;;;;;;;7.13;2.80;;;;;;;8.16;100.00;100582.69;2532139;23;20441;-68
2023/04/13 01:52:42;;;;;;;6.30;2.87;;;;;;;7.73;100.00;100519.03;2532357;23;20154;-68
2023/04/13 01:53:47;;;;;;;5.63;2.70;;;;;;;8.16;100.00;100582.69;2532429;23;20941;-68
2023/04/13 01:54:49;;;;;;;8.13;2.93;;;;;;;8.12;100.00;100591.00;2519357;23;20420;-68
2023/04/13 01:55:50;;;;;;;5.00;2.60;;;;;;;8.12;100.00;100585.50;2518358;23;20851;-68
2023/04/13 01:56:51;;;;;;;6.03;2.90;;;;;;;8.06;100.00;100583.63;2532682;23;20154;-68
2023/04/13 01:57:55;;;;;;;5.72;3.10;;;;;;;7.15;100.00;100436.72;2532339;23;20181;-68
2023/04/13 01:58:58;;;;;;;5.85;3.03;;;;;;;7.22;100.00;100458.69;2532302;23;20583;-68
2023/04/13 01:59:59;;;;;;;6.65;3.00;;;;;;;8.02;100.00;100580.13;2532384;23;20176;-68
2023/04/13 02:01:00;;;;;;;7.77;2.80;;;;;;;8.05;100.00;100585.59;2532465;23;20607;-68
2023/04/13 02:02:00;;;;;;;7.13;2.97;;;;;;;8.09;100.00;100589.06;2531484;23;20441;-68
2023/04/13 02:03:05;;;;;;;6.63;3.13;;;;;;;8.14;100.00;100585.84;2532488;23;20236;-68
2023/04/13 02:04:06;;;;;;;8.27;3.03;;;;;;;8.17;100.00;100585.03;2532192;23;20163;-68
2023/04/13 02:05:09;;;;;;;7.43;2.95;;;;;;;8.18;100.00;100588.56;2532411;23;20156;-68
2023/04/13 02:06:10;;;;;;;5.67;3.13;;;;;;;8.17;100.00;100585.03;2530898;23;20165;-68
2023/04/13 02:07:11;;;;;;;6.33;3.20;;;;;;;8.04;100.00;100569.47;2532650;23;20418;-68
2023/04/13 02:08:12;;;;;;;5.07;2.75;;;;;;;8.20;100.00;100595.25;2532346;23;20155;-68
2023/04/13 02:09:13;;;;;;;5.53;2.63;;;;;;;8.22;100.00;100598.41;2532389;23;20179;-68
2023/04/13 02:10:15;;;;;;;6.43;3.60;;;;;;;8.24;100.00;100595.19;2532190;23;20630;-68
2023/04/13 02:11:16;;;;;;;5.20;3.13;;;;;;;8.18;100.00;100597.63;2532333;23;20160;-68
2023/04/13 02:12:16;;;;;;;5.07;3.20;;;;;;;8.20;100.00;100598.00;2531519;23;20157;-68
2023/04/13 02:13:17;;;;;;;7.40;2.97;;;;;;;8.21;100.00;100588.53;2532349;23;20410;-68
2023/04/13 02:14:17;;;;;;;4.60;2.60;;;;;;;8.26;100.00;100588.06;2532497;23;20161;-68
2023/04/13 02:15:18;;;;;;;8.53;2.97;;;;;;;8.29;100.00;100598.28;2532355;23;20151;-68
2023/04/13 02:16:18;;;;;;;8.23;3.40;;;;;;;7.80;100.00;100518.94;2532011;23;20161;-68
2023/04/13 02:17:19;;;;;;;6.40;2.90;;;;;;;8.30;100.00;100588.78;2531446;23;20154;-68
2023/04/13 02:18:19;;;;;;;6.70;2.93;;;;;;;8.33;100.00;100596.25;2532294;23;20182;-68
2023/04/13 02:19:20;;;;;;;8.13;3.30;;;;;;;8.34;100.00;100597.00;2532311;23;20151;-68
2023/04/13 02:20:21;;;;;;;4.70;2.90;;;;;;;8.33;100.00;100592.69;2532314;23;20162;-68
2023/04/13 02:21:21;;;;;;;5.17;3.30;;;;;;;8.33;100.00;100584.41;2532432;23;20258;-68
2023/04/13 02:22:22;;;;;;;5.27;2.90;;;;;;;8.35;100.00;100596.59;2531466;23;20298;-68
2023/04/13 02:23:22;;;;;;;4.82;3.10;;;;;;;8.39;100.00;100593.78;2533153;23;20664;-68
2023/04/13 02:24:23;;;;;;;5.40;3.13;;;;;;;8.41;100.00;100591.41;2533342;23;20792;-68
2023/04/13 02:25:27;;;;;;;7.67;3.70;;;;;;;8.41;100.00;100597.69;2533006;23;20158;-68
2023/04/13 02:26:27;;;;;;;6.03;3.03;;;;;;;8.33;100.00;100579.69;2533129;23;20542;-68
2023/04/13 02:27:29;;;;;;;7.07;3.20;;;;;;;8.35;100.00;100580.03;2531719;23;20444;-68
2023/04/13 02:28:30;;;;;;;4.87;2.90;;;;;;;8.45;100.00;100590.13;2532921;23;20160;-68
2023/04/13 02:29:30;;;;;;;5.70;2.83;;;;;;;8.46;100.00;100597.22;2532968;23;20425;-68
2023/04/13 02:30:30;;;;;;;5.03;2.90;;;;;;;8.41;100.00;100596.94;2533097;23;20157;-68
2023/04/13 02:31:32;;;;;;;8.77;2.87;;;;;;;8.41;100.00;100599.69;2532684;23;20185;-68
2023/04/13 02:32:38;;;;;;;5.65;2.90;;;;;;;8.41;100.00;100599.69;2532727;23;20173;-68
2023/04/13 02:33:38;;;;;;;5.60;2.83;;;;;;;8.42;100.00;100591.00;2532899;23;20185;-68
2023/04/13 02:34:39;;;;;;;8.43;2.67;;;;;;;8.43;100.00;100597.28;2533317;23;20501;-68
2023/04/13 02:35:39;;;;;;;4.23;2.50;;;;;;;8.45;100.00;100600.41;2533087;23;20536;-68
2023/04/13 02:36:39;;;;;;;7.37;2.90;;;;;;;8.41;100.00;100594.94;2533422;23;20154;-68
2023/04/13 02:37:40;;;;;;;5.03;3.03;;;;;;;7.78;100.00;100487.44;2531542;23;20159;-68
2023/04/13 02:38:41;;;;;;;5.77;2.90;;;;;;;8.41;100.00;100591.41;2533055;23;20157;-68
2023/04/13 02:39:41;;;;;;;6.03;3.00;;;;;;;8.20;100.00;100553.06;2533111;23;20662;-68
2023/04/13 02:40:42;;;;;;;5.17;3.20;;;;;;;8.24;100.00;100584.94;2533005;23;20161;-68
2023/04/13 02:41:43;;;;;;;5.50;2.70;;;;;;;8.33;100.00;100598.22;2532335;23;20150;-68
2023/04/13 02:42:43;;;;;;;4.60;2.97;;;;;;;8.37;100.00;100604.47;2533018;23;20191;-68
2023/04/13 02:43:44;;;;;;;6.60;2.87;;;;;;;8.34;100.00;100599.78;2532980;23;20559;-68
2023/04/13 02:44:44;;;;;;;5.20;2.80;;;;;;;8.34;100.00;100600.56;2533049;23;20158;-68
2023/04/13 02:45:45;;;;;;;5.43;2.90;;;;;;;8.33;100.00;100599.00;2533038;23;20182;-68
2023/04/13 02:46:45;;;;;;;6.53;2.83;;;;;;;8.36;100.00;100594.63;2532956;23;20477;-68
2023/04/13 02:47:46;;;;;;;6.17;3.40;;;;;;;8.37;100.00;100594.22;2532910;23;20152;-68
2023/04/13 02:48:46;;;;;;;6.13;3.20;;;;;;;8.35;100.00;100598.59;2531811;23;20147;-68
2023/04/13 02:49:47;;;;;;;5.93;3.07;;;;;;;7.88;100.00;100536.16;2532865;23;20220;-68
2023/04/13 02:50:47;;;;;;;8.13;3.40;;;;;;;7.83;100.00;100542.13;2533063;23;20460;-68
2023/04/13 02:51:47;;;;;;;6.43;2.77;;;;;;;8.27;100.00;100594.38;2532423;23;20623;-68
2023/04/13 02:52:48;;;;;;;5.20;3.10;;;;;;;8.28;100.00;100596.72;2533062;23;20150;-68
2023/04/13 02:53:49;;;;;;;5.37;2.83;;;;;;;8.25;100.00;100600.31;2532933;23;20236;-68
2023/04/13 02:54:53;;;;;;;5.10;3.33;;;;;;;8.10;100.00;100587.09;2533069;23;20658;-68
2023/04/13 02:55:54;;;;;;;6.15;3.20;;;;;;;7.87;100.00;100542.88;2533066;23;20160;-68
2023/04/13 02:56:54;;;;;;;8.57;2.90;;;;;;;8.22;100.00;100592.06;2533056;23;20353;-68
2023/04/13 02:57:56;;;;;;;6.53;3.17;;;;;;;8.18;100.00;100597.63;2532883;23;20387;-68
2023/04/13 02:58:58;;;;;;;6.63;3.40;;;;;;;8.16;100.00;100597.25;2531366;23;20159;-68
2023/04/13 02:59:59;;;;;;;6.68;3.20;;;;;;;8.09;100.00;100588.31;2532732;23;20245;-68
2023/04/13 03:00:59;;;;;;;5.93;2.97;;;;;;;8.25;100.00;100599.53;2532672;23;20155;-68
2023/04/13 03:02:00;;;;;;;5.23;2.93;;;;;;;8.19;100.00;100606.66;2531977;23;20170;-68
2023/04/13 03:03:02;;;;;;;5.30;3.07;;;;;;;8.18;100.00;100618.91;2533030;23;20166;-68
2023/04/13 03:04:02;;;;;;;5.18;3.28;;;;;;;7.82;100.00;100535.84;2532876;23;20163;-68
2023/04/13 03:05:07;;;;;;;8.43;2.90;;;;;;;8.21;100.00;100605.09;2533077;23;20160;-68
2023/04/13 03:06:08;;;;;;;4.07;2.80;;;;;;;8.19;100.00;100607.47;2532925;23;20151;-69
2023/04/13 03:07:09;;;;;;;5.73;3.00;;;;;;;8.20;100.00;100603.53;2533073;23;20164;-68
2023/04/13 03:08:09;;;;;;;5.85;2.95;;;;;;;8.20;100.00;100603.53;2532915;23;20152;-68
2023/04/13 03:09:10;;;;;;;6.13;2.93;;;;;;;7.29;100.00;100469.59;2518791;23;20278;-68
2023/04/13 03:10:11;;;;;;;8.35;3.40;;;;;;;8.18;100.00;100607.88;2520108;23;20405;-68
2023/04/13 03:11:11;;;;;;;5.47;3.00;;;;;;;8.17;100.00;100607.13;2533092;23;20157;-68
2023/04/13 03:12:12;;;;;;;6.83;3.17;;;;;;;8.19;100.00;100607.47;2532032;23;20151;-68
2023/04/13 03:13:12;;;;;;;4.80;2.80;;;;;;;7.65;100.00;100527.84;2533000;23;20179;-68
2023/04/13 03:14:19;;;;;;;8.03;2.90;;;;;;;8.19;100.00;100604.72;2532832;23;20158;-68
2023/04/13 03:15:20;;;;;;;6.32;2.58;;;;;;;8.11;100.00;100594.94;2533206;23;20135;-68
2023/04/13 03:16:20;;;;;;;5.00;2.50;;;;;;;8.18;100.00;100602.34;2532877;23;20213;-68
2023/04/13 03:17:21;;;;;;;4.60;2.93;;;;;;;8.09;100.00;100596.59;2520114;23;20240;-68
2023/04/13 03:18:22;;;;;;;5.97;2.70;;;;;;;8.02;100.00;100586.44;2520320;23;20159;-68
2023/04/13 03:19:24;;;;;;;6.30;3.00;;;;;;;8.17;100.00;100607.13;2519669;23;20163;-68
2023/04/13 03:20:24;;;;;;;7.43;3.10;;;;;;;8.09;100.00;100596.59;2519469;23;20161;-68
2023/04/13 03:21:24;;;;;;;7.43;2.60;;;;;;;8.18;100.00;100610.63;2532613;23;20159;-68
2023/04/13 03:22:29;;;;;;;5.10;2.47;;;;;;;8.19;100.00;100612.19;2532294;23;20152;-68
2023/04/13 03:23:29;;;;;;;5.27;2.90;;;;;;;8.08;100.00;100597.75;2532694;23;20223;-68
2023/04/13 03:24:30;;;;;;;4.97;2.50;;;;;;;8.09;100.00;100596.59;2532995;23;20461;-68
2023/04/13 03:25:30;;;;;;;5.43;2.77;;;;;;;8.21;100.00;100610.59;2532967;23;20147;-68
2023/04/13 03:26:31;;;;;;;7.33;3.10;;;;;;;8.20;100.00;100611.81;2532985;23;20234;-68
2023/04/13 03:27:31;;;;;;;4.53;2.93;;;;;;;7.90;100.00;100573.19;2532901;23;20148;-68
2023/04/13 03:28:32;;;;;;;5.57;3.10;;;;;;;8.18;100.00;100614.19;2533021;23;20665;-68
2023/04/13 03:29:32;;;;;;;4.07;2.63;;;;;;;8.03;100.00;100590.75;2532902;23;20665;-68
2023/04/13 03:30:32;;;;;;;4.33;2.73;;;;;;;8.21;100.00;100612.59;2518472;23;20183;-68
2023/04/13 03:31:33;;;;;;;4.20;2.40;;;;;;;8.21;100.00;100612.59;2519590;23;20299;-68
2023/04/13 03:32:33;;;;;;;4.93;2.80;;;;;;;8.19;100.00;100618.50;2531553;23;20157;-68
2023/04/13 03:33:34;;;;;;;4.23;2.90;;;;;;;8.20;100.00;100616.56;2532164;23;20233;-68
2023/04/13 03:34:34;;;;;;;6.47;3.10;;;;;;;8.18;100.00;100616.16;2532473;23;20205;-68
2023/04/13 03:35:35;;;;;;;5.93;2.80;;;;;;;8.16;100.00;100615.81;2532873;23;20554;-68
2023/04/13 03:36:35;;;;;;;6.03;3.27;;;;;;;7.37;100.00;100517.94;2532912;23;20161;-68
2023/04/13 03:37:41;;;;;;;6.20;2.93;;;;;;;6.98;100.00;100439.72;2532840;23;20152;-68
2023/04/13 03:38:41;;;;;;;4.00;2.77;;;;;;;8.14;100.00;100618.97;2533160;23;20584;-68
2023/04/13 03:39:42;;;;;;;5.50;2.90;;;;;;;8.14;100.00;100621.72;2532787;23;20718;-68
2023/04/13 03:40:43;;;;;;;7.60;3.17;;;;;;;8.13;100.00;100614.66;2531482;23;20150;-68
2023/04/13 03:41:43;;;;;;;5.27;2.87;;;;;;;8.11;100.00;100622.56;2532072;23;20231;-68
2023/04/13 03:42:43;;;;;;;4.93;3.07;;;;;;;8.10;100.00;100614.72;2533006;23;20193;-68
2023/04/13 03:43:44;;;;;;;5.03;2.93;;;;;;;7.98;100.00;100606.97;2532696;23;20167;-68
2023/04/13 03:44:44;;;;;;;7.97;3.53;;;;;;;8.11;100.00;100619.78;2532686;23;20588;-68
2023/04/13 03:45:45;;;;;;;11.40;3.50;;;;;;;8.13;100.00;100620.19;2532780;23;20152;-68
2023/04/13 03:46:45;;;;;;;8.70;3.47;;;;;;;8.13;100.00;100620.19;2533260;23;20227;-68
2023/04/13 03:47:46;;;;;;;6.23;3.63;;;;;;;8.17;100.00;100620.13;2532908;23;20148;-68
2023/04/13 03:48:46;;;;;;;7.80;3.07;;;;;;;8.13;100.00;100619.38;2532765;23;20570;-68
2023/04/13 03:49:47;;;;;;;9.10;3.10;;;;;;;7.40;100.00;100499.81;2532671;23;20223;-68
2023/04/13 03:50:47;;;;;;;7.40;3.50;;;;;;;7.85;100.00;100572.88;2532502;23;20207;-68
2023/04/13 03:51:48;;;;;;;11.87;4.40;;;;;;;8.14;100.00;100612.66;2530774;23;20709;-68
2023/04/13 03:52:48;;;;;;;8.33;3.30;;;;;;;8.06;100.00;100612.00;2532801;23;20180;-68
2023/04/13 03:53:48;;;;;;;8.33;3.30;;;;;;;8.15;100.00;100623.28;2532797;23;20152;-68
2023/04/13 03:54:49;;;;;;;8.83;3.60;;;;;;;8.18;100.00;100627.19;2533036;23;20164;-68
2023/04/13 03:55:50;;;;;;;11.13;3.87;;;;;;;8.18;100.00;100627.19;2532733;23;20154;-68
2023/04/13 03:56:50;;;;;;;6.28;3.20;;;;;;;7.10;100.00;100452.94;2532815;23;20254;-68
2023/04/13 03:57:51;;;;;;;8.37;3.10;;;;;;;8.16;100.00;100624.84;2532805;23;20154;-68
2023/04/13 03:58:55;;;;;;;9.17;3.63;;;;;;;7.12;100.00;100459.59;2532351;23;20260;-68
2023/04/13 03:59:55;;;;;;;8.07;3.42;;;;;;;8.14;100.00;100630.00;2532713;23;20164;-68
2023/04/13 04:00:56;;;;;;;12.97;4.03;;;;;;;7.77;100.00;100565.88;2532766;23;20156;-68
2023/04/13 04:01:57;;;;;;;9.70;4.03;;;;;;;8.17;100.00;100625.63;2530625;23;20168;-68
2023/04/13 04:02:57;;;;;;;8.57;3.90;;;;;;;8.19;100.00;100628.75;2532710;23;20154;-68
2023/04/13 04:03:58;;;;;;;10.47;4.17;;;;;;;8.20;100.00;100622.09;2532864;23;20599;-68
2023/04/13 04:04:58;;;;;;;12.20;4.30;;;;;;;8.18;100.00;100625.22;2532630;23;20158;-68
2023/04/13 04:05:59;;;;;;;7.97;4.50;;;;;;;7.94;100.00;100596.00;2532680;23;20183;-68
2023/04/13 04:06:59;;;;;;;9.87;4.30;;;;;;;8.17;100.00;100634.72;2533009;23;20632;-68
2023/04/13 04:08:00;;;;;;;10.13;3.53;;;;;;;8.20;100.00;100624.84;2532654;23;20181;-68
2023/04/13 04:09:00;;;;;;;10.80;4.13;;;;;;;8.21;100.00;100632.69;2532695;23;20157;-68
2023/04/13 04:10:01;;;;;;;10.87;3.80;;;;;;;8.21;100.00;100629.94;2532614;23;20240;-68
2023/04/13 04:11:01;;;;;;;7.63;4.10;;;;;;;7.60;100.00;100542.88;2532670;23;20586;-68
2023/04/13 04:12:02;;;;;;;7.00;3.60;;;;;;;8.26;100.00;100629.47;2530918;23;20162;-68
2023/04/13 04:13:03;;;;;;;7.77;3.63;;;;;;;7.96;100.00;100579.81;2532431;23;20161;-68
2023/04/13 04:14:03;;;;;;;9.87;3.60;;;;;;;7.28;100.00;100481.06;2532508;23;20210;-68
2023/04/13 04:15:04;;;;;;;8.20;3.67;;;;;;;8.27;100.00;100624.75;2532845;23;20161;-68
2023/04/13 04:16:07;;;;;;;7.27;3.60;;;;;;;8.30;100.00;100630.19;2532588;23;20181;-68
2023/04/13 04:17:08;;;;;;;10.32;3.70;;;;;;;8.32;100.00;100635.31;2532815;23;20155;-68
2023/04/13 04:18:08;;;;;;;8.70;3.77;;;;;;;8.33;100.00;100637.66;2532544;23;20160;-68
2023/04/13 04:19:09;;;;;;;7.47;3.40;;;;;;;8.34;100.00;100636.47;2532792;23;20235;-68
2023/04/13 04:20:09;;;;;;;6.53;3.53;;;;;;;8.32;100.00;100633.34;2532404;23;20171;-68
2023/04/13 04:21:11;;;;;;;8.83;3.30;;;;;;;8.34;100.00;100627.38;2532792;23;20161;-68
2023/04/13 04:22:12;;;;;;;7.90;3.60;;;;;;;8.37;100.00;100632.88;2531902;23;20150;-68
2023/04/13 04:23:14;;;;;;;7.47;3.10;;;;;;;8.39;100.00;100633.22;2531206;23;20157;-68
2023/04/13 04:24:21;;;;;;;8.45;3.20;;;;;;;8.41;100.00;100630.06;2532548;23;20156;-68
2023/04/13 04:25:22;;;;;;;6.28;3.10;;;;;;;8.45;100.00;100631.56;2532649;23;20139;-68
2023/04/13 04:26:24;;;;;;;6.73;3.20;;;;;;;8.47;100.00;100636.66;2532674;23;20170;-68
2023/04/13 04:27:25;;;;;;;9.15;3.80;;;;;;;8.48;100.00;100630.75;2532586;23;20601;-68
2023/04/13 04:28:29;;;;;;;5.57;3.10;;;;;;;8.29;100.00;100605.75;2532529;23;20543;-68
2023/04/13 04:29:35;;;;;;;7.35;3.17;;;;;;;8.53;100.00;100635.00;2532533;23;20207;-68
2023/04/13 04:30:36;;;;;;;6.72;3.40;;;;;;;8.58;100.00;100643.59;2532923;23;20136;-68
2023/04/13 04:31:42;;;;;;;7.60;3.23;;;;;;;7.91;100.00;100541.66;2532083;23;20152;-68
2023/04/13 04:32:42;;;;;;;7.80;3.40;;;;;;;8.60;100.00;100649.47;2532537;23;20145;-68
2023/04/13 04:33:43;;;;;;;8.10;3.63;;;;;;;8.31;100.00;100598.63;2531272;23;20342;-68
2023/04/13 04:34:43;;;;;;;7.93;3.40;;;;;;;8.67;100.00;100648.59;2532860;23;20244;-68
2023/04/13 04:35:48;;;;;;;7.47;3.33;;;;;;;8.68;100.00;100650.94;2532576;23;20152;-68
2023/04/13 04:36:49;;;;;;;10.53;3.37;;;;;;;8.71;100.00;100649.31;2532687;23;20579;-68
2023/04/13 04:37:54;;;;;;;8.13;3.80;;;;;;;8.56;100.00;100628.66;2532693;23;20735;-68
2023/04/13 04:39:00;;;;;;;6.67;3.03;;;;;;;8.78;100.00;100654.72;2532517;23;20606;-68
2023/04/13 04:40:06;;;;;;;6.70;3.03;;;;;;;8.83;100.00;100649.53;2532602;23;20720;-68
2023/04/13 04:41:07;;;;;;;6.43;3.50;;;;;;;8.20;100.00;100548.31;2532554;23;20381;-69
2023/04/13 04:42:09;;;;;;;11.10;4.87;;;;;;;8.91;100.00;100664.00;2518648;23;20440;-68
2023/04/13 04:43:13;;;;;;;8.27;5.30;;;;;;;8.94;100.00;100652.09;2519997;23;20385;-68
2023/04/13 04:44:15;;;;;;;7.37;4.97;;;;;;;8.99;100.00;100657.94;2531131;23;20389;-68
2023/04/13 04:45:16;;;;;;;10.00;4.67;;;;;;;9.04;100.00;100657.44;2532676;23;20380;-68
2023/04/13 04:46:16;;;;;;;8.23;4.83;;;;;;;9.06;100.00;100655.03;2532341;23;20386;-68
2023/04/13 04:47:18;;;;;;;10.23;5.53;;;;;;;8.91;100.00;100623.31;2532562;23;20157;-68
2023/04/13 04:48:19;;;;;;;11.77;6.00;;;;;;;9.15;100.00;100658.03;2532463;23;20164;-68
2023/04/13 04:49:20;;;;;;;10.77;5.53;;;;;;;9.19;100.00;100652.44;2532502;23;20461;-68
2023/04/13 04:50:20;;;;;;;10.17;5.40;;;;;;;9.19;100.00;100653.25;2532620;23;20157;-68